Time;durP1;ratioP1;P1;durP2;ratioP2;P2;SDS_P1;SDS_P2;PMS_P1;PMS_P2;Temp;Humidity;BMP_temperature;BMP_pressure;BME280_temperature;BME280_humidity;BME280_pressure;Samples;Min_cycle;Max_cycle;Signal;HPM_P1;HPM_P2
2022/04/19 00:01:27;;;;;;;5.40;3.00;;;9.50;99.00;;;;;;5115060;28;20580;-87
2022/04/19 00:03:56;;;;;;;5.77;2.87;;;9.40;99.50;;;;;;5104283;28;20458;-87
2022/04/19 00:06:23;;;;;;;5.30;2.67;;;9.50;99.30;;;;;;5103760;28;20485;-87
2022/04/19 00:08:51;;;;;;;6.33;2.87;;;9.40;99.50;;;;;;5111677;28;20478;-87
2022/04/19 00:11:19;;;;;;;13.50;3.90;;;9.30;99.80;;;;;;5115386;28;20851;-87
2022/04/19 00:13:45;;;;;;;6.10;3.00;;;9.20;99.90;;;;;;5105590;28;20812;-87
2022/04/19 00:16:14;;;;;;;7.97;3.30;;;9.20;99.90;;;;;;5102294;28;20530;-86
2022/04/19 00:18:41;;;;;;;5.00;2.97;;;9.20;99.90;;;;;;5103381;28;20824;-87
2022/04/19 00:21:08;;;;;;;6.20;2.70;;;9.30;99.90;;;;;;5107464;28;20446;-88
2022/04/19 00:23:35;;;;;;;4.47;2.63;;;9.30;99.90;;;;;;5106536;28;20546;-87
2022/04/19 00:26:03;;;;;;;6.10;3.40;;;9.40;99.90;;;;;;5104285;28;20482;-87
2022/04/19 00:28:30;;;;;;;5.70;3.00;;;9.40;99.90;;;;;;5102003;28;20475;-87
2022/04/19 00:30:57;;;;;;;5.90;3.83;;;9.30;99.90;;;;;;5103239;28;20442;-87
2022/04/19 00:33:25;;;;;;;6.70;3.43;;;9.30;99.90;;;;;;5116799;28;20453;-87
2022/04/19 00:35:52;;;;;;;4.87;2.90;;;9.20;99.90;;;;;;5114688;28;20459;-87
2022/04/19 00:38:20;;;;;;;6.03;3.60;;;9.30;99.90;;;;;;5110182;28;20505;-87
2022/04/19 00:40:47;;;;;;;5.20;2.73;;;9.30;99.90;;;;;;5115313;28;20488;-87
2022/04/19 00:43:18;;;;;;;5.00;2.63;;;9.30;99.90;;;;;;5118285;28;20469;-87
2022/04/19 00:45:45;;;;;;;7.27;2.70;;;9.20;99.90;;;;;;5118178;28;20394;-87
2022/04/19 00:48:12;;;;;;;7.27;3.57;;;9.20;99.90;;;;;;5117918;28;20504;-87
2022/04/19 00:50:39;;;;;;;4.73;2.57;;;9.10;99.90;;;;;;5107887;28;20451;-88
2022/04/19 00:53:08;;;;;;;7.13;2.60;;;9.00;99.90;;;;;;5104746;28;20453;-88
2022/04/19 00:55:36;;;;;;;7.17;4.23;;;8.90;99.90;;;;;;5103320;28;20447;-88
2022/04/19 00:58:03;;;;;;;6.17;2.40;;;8.90;99.90;;;;;;5103307;28;20474;-88
2022/04/19 01:00:31;;;;;;;5.00;3.20;;;8.80;99.90;;;;;;5104139;28;20454;-86
2022/04/19 01:02:59;;;;;;;4.33;2.67;;;8.70;99.90;;;;;;5102398;28;20483;-87
2022/04/19 01:05:26;;;;;;;4.53;2.50;;;8.70;99.90;;;;;;5102035;28;20508;-87
2022/04/19 01:07:53;;;;;;;5.40;3.27;;;8.80;99.90;;;;;;5101965;28;20466;-87
2022/04/19 01:10:20;;;;;;;7.73;2.73;;;8.80;99.90;;;;;;5100950;28;20481;-87
2022/04/19 01:15:33;;;;;;;4.77;2.87;;;8.90;99.90;;;;;;5102874;28;20491;-88
2022/04/19 01:18:01;;;;;;;6.13;2.70;;;8.90;99.90;;;;;;5103270;28;20971;-88
2022/04/19 01:20:29;;;;;;;11.57;3.27;;;8.80;99.90;;;;;;5102440;28;20502;-87
2022/04/19 01:22:57;;;;;;;4.23;2.67;;;8.70;99.90;;;;;;5100076;28;20486;-87
2022/04/19 01:25:26;;;;;;;6.60;3.23;;;8.70;99.90;;;;;;5108187;28;20510;-86
2022/04/19 01:27:53;;;;;;;10.30;3.00;;;8.70;99.90;;;;;;5105768;28;20471;-87
2022/04/19 01:30:20;;;;;;;3.50;2.33;;;8.70;99.90;;;;;;5100911;28;20466;-86
2022/04/19 01:32:47;;;;;;;4.77;2.73;;;8.70;99.90;;;;;;5102588;28;20467;-87
2022/04/19 01:35:19;;;;;;;4.77;2.67;;;8.60;99.90;;;;;;5102548;28;20534;-87
2022/04/19 01:37:48;;;;;;;4.27;2.23;;;8.60;99.90;;;;;;5102004;28;20483;-87
2022/04/19 01:40:17;;;;;;;4.57;3.00;;;8.60;99.90;;;;;;5101349;28;20512;-87
2022/04/19 01:42:45;;;;;;;6.00;2.80;;;8.40;99.90;;;;;;5101423;28;20482;-86
2022/04/19 01:45:12;;;;;;;4.90;2.40;;;8.40;99.90;;;;;;5102098;28;20439;-87
2022/04/19 01:47:41;;;;;;;7.50;2.77;;;8.30;99.90;;;;;;5099408;28;20847;-87
2022/04/19 01:50:10;;;;;;;6.40;3.07;;;8.30;99.90;;;;;;5098232;28;20486;-87
2022/04/19 01:52:37;;;;;;;7.23;3.43;;;8.20;99.90;;;;;;5104371;28;20443;-88
2022/04/19 01:55:06;;;;;;;6.53;2.97;;;8.20;99.90;;;;;;5105886;28;20481;-87
2022/04/19 01:57:34;;;;;;;7.20;2.87;;;8.10;99.90;;;;;;5101910;28;20455;-88
2022/04/19 02:00:02;;;;;;;4.63;2.42;;;7.90;99.90;;;;;;5108477;28;20815;-87
2022/04/19 02:02:29;;;;;;;5.32;3.15;;;7.90;99.90;;;;;;5105898;28;20685;-87
2022/04/19 02:04:56;;;;;;;4.40;2.40;;;7.90;99.90;;;;;;5109903;28;20269;-87
2022/04/19 02:07:23;;;;;;;4.80;2.80;;;7.80;99.90;;;;;;5113062;28;20491;-87
2022/04/19 02:09:49;;;;;;;4.97;2.70;;;7.80;99.90;;;;;;5113113;28;20211;-88
2022/04/19 02:12:16;;;;;;;6.55;2.70;;;7.80;99.90;;;;;;5113378;28;20201;-87
2022/04/19 02:14:45;;;;;;;5.50;3.07;;;7.80;99.90;;;;;;5113636;28;20205;-87
2022/04/19 02:17:15;;;;;;;7.10;2.63;;;7.80;99.90;;;;;;5114452;28;20470;-87
2022/04/19 02:19:42;;;;;;;4.97;3.10;;;7.70;99.90;;;;;;5113434;28;20189;-88
2022/04/19 02:22:09;;;;;;;5.13;2.50;;;7.70;99.90;;;;;;5109906;28;20211;-88
2022/04/19 02:24:37;;;;;;;5.60;2.60;;;7.70;99.90;;;;;;5106460;28;20219;-88
2022/04/19 02:27:05;;;;;;;5.10;2.50;;;7.80;99.90;;;;;;5105259;28;20438;-88
2022/04/19 02:29:33;;;;;;;5.53;2.60;;;7.80;99.90;;;;;;5104677;28;20459;-88
2022/04/19 02:32:01;;;;;;;4.80;2.77;;;7.70;99.90;;;;;;5105152;28;20215;-88
2022/04/19 02:34:29;;;;;;;5.83;2.83;;;7.80;99.90;;;;;;5111584;28;20447;-88
2022/04/19 02:36:56;;;;;;;3.97;2.37;;;7.70;99.90;;;;;;5106620;28;20446;-88
2022/04/19 02:39:23;;;;;;;4.40;1.83;;;7.80;99.90;;;;;;5113688;28;20480;-88
2022/04/19 02:41:51;;;;;;;3.97;2.53;;;7.80;99.90;;;;;;5122929;28;20431;-87
2022/04/19 02:44:18;;;;;;;4.10;2.37;;;7.70;99.90;;;;;;5122634;28;20477;-88
2022/04/19 02:46:45;;;;;;;6.55;2.53;;;7.80;99.90;;;;;;5119860;28;20525;-87
2022/04/19 02:49:13;;;;;;;5.13;1.90;;;7.80;99.90;;;;;;5116142;28;20260;-87
2022/04/19 02:51:40;;;;;;;4.47;2.57;;;7.80;99.90;;;;;;5113418;28;20451;-88
2022/04/19 02:54:07;;;;;;;5.63;2.23;;;7.70;99.90;;;;;;5111619;28;20442;-87
2022/04/19 02:56:34;;;;;;;6.30;2.60;;;7.80;99.90;;;;;;5108372;28;20453;-87
2022/04/19 02:59:01;;;;;;;5.57;2.67;;;7.80;99.90;;;;;;5116818;28;20554;-87
2022/04/19 03:01:29;;;;;;;4.65;2.53;;;7.90;99.90;;;;;;5110465;28;20261;-87
2022/04/19 03:03:57;;;;;;;6.70;2.63;;;7.90;99.90;;;;;;5111447;28;20224;-88
2022/04/19 03:06:25;;;;;;;5.90;2.97;;;7.80;99.90;;;;;;5114343;28;20562;-87
2022/04/19 03:08:52;;;;;;;4.40;2.27;;;7.80;99.90;;;;;;5120641;28;20490;-87
2022/04/19 03:11:19;;;;;;;6.00;2.50;;;7.70;99.90;;;;;;5113027;28;20481;-87
2022/04/19 03:13:46;;;;;;;5.43;2.63;;;7.60;99.90;;;;;;5110249;28;20442;-88
2022/04/19 03:16:14;;;;;;;6.67;2.77;;;7.60;99.90;;;;;;5120877;28;20184;-87
2022/04/19 03:18:42;;;;;;;5.90;3.00;;;7.60;99.90;;;;;;5122380;28;20521;-86
2022/04/19 03:21:10;;;;;;;4.20;2.88;;;7.50;99.90;;;;;;5122419;28;20502;-87
2022/04/19 03:29:09;;;;;;;6.03;2.63;;;7.40;99.90;;;;;;5108741;28;20502;-88
2022/04/19 03:31:36;;;;;;;5.63;2.97;;;7.40;99.90;;;;;;5109931;28;20450;-87
2022/04/19 03:34:03;;;;;;;4.18;2.38;;;7.30;99.90;;;;;;5108783;28;20610;-88
2022/04/19 03:36:30;;;;;;;4.55;2.60;;;7.30;99.90;;;;;;5113345;28;20292;-87
2022/04/19 03:39:00;;;;;;;4.32;2.50;;;6.90;99.90;;;;;;5121546;28;20209;-87
2022/04/19 03:41:27;;;;;;;6.25;2.65;;;7.30;99.90;;;;;;5121204;28;20204;-88
2022/04/19 03:43:53;;;;;;;4.72;1.95;;;7.30;99.90;;;;;;5120581;28;20236;-87
2022/04/19 03:46:21;;;;;;;6.90;2.78;;;7.20;99.90;;;;;;5108197;28;20208;-88
2022/04/19 03:48:48;;;;;;;5.95;2.95;;;7.30;99.90;;;;;;5104362;28;20239;-87
2022/04/19 03:51:15;;;;;;;4.30;2.50;;;7.20;99.90;;;;;;5103924;28;20213;-89
2022/04/19 03:53:42;;;;;;;5.28;2.72;;;7.30;99.90;;;;;;5102100;28;20276;-87
2022/04/19 03:56:20;;;;;;;6.45;2.97;;;7.20;99.90;;;;;;5266645;22;20279;-87
2022/04/19 03:58:57;;;;;;;5.73;2.90;;;7.20;99.90;;;;;;5090857;28;20216;-87
2022/04/19 04:01:56;;;;;;;5.45;2.83;;;7.10;99.90;;;;;;5097955;28;20444;-84
2022/04/19 04:04:41;;;;;;;4.90;3.20;;;7.10;99.90;;;;;;5098662;28;20205;-88
2022/04/19 04:10:17;;;;;;;6.65;3.30;;;7.10;99.90;;;;;;5087020;28;20428;-88
2022/04/19 04:19:47;;;;;;;4.30;2.60;;;7.00;99.90;;;;;;5078111;28;20225;-88
2022/04/19 04:22:20;;;;;;;7.28;3.50;;;7.00;99.90;;;;;;5083105;28;20296;-87
2022/04/19 04:25:02;;;;;;;6.75;3.50;;;7.00;99.90;;;;;;5083254;28;20221;-88
2022/04/19 04:27:32;;;;;;;7.00;3.47;;;7.00;99.90;;;;;;5086167;28;20293;-88
2022/04/19 04:32:46;;;;;;;5.60;3.20;;;6.80;99.90;;;;;;5082717;28;20209;-88
2022/04/19 04:35:29;;;;;;;7.50;3.53;;;6.90;99.90;;;;;;5083961;28;20215;-87
2022/04/19 04:38:15;;;;;;;4.18;2.58;;;6.90;99.90;;;;;;5084670;28;20283;-89
2022/04/19 04:40:51;;;;;;;4.68;3.00;;;6.80;99.90;;;;;;5093947;28;20196;-86
2022/04/19 04:43:37;;;;;;;4.35;2.40;;;6.80;99.90;;;;;;5095708;28;20216;-86
2022/04/19 04:49:39;;;;;;;5.53;3.10;;;6.90;99.90;;;;;;5092573;28;20227;-87
2022/04/19 04:52:15;;;;;;;6.53;3.58;;;6.90;99.90;;;;;;5086676;28;20200;-87
2022/04/19 05:01:13;;;;;;;5.57;3.05;;;7.00;99.90;;;;;;5083445;28;20260;-88
2022/04/19 05:06:56;;;;;;;6.13;3.20;;;7.10;99.90;;;;;;5074706;28;20252;-86
2022/04/19 05:09:44;;;;;;;5.70;3.10;;;7.10;99.90;;;;;;5084725;28;20205;-85
2022/04/19 05:12:14;;;;;;;5.57;3.13;;;7.20;99.90;;;;;;5087463;28;20209;-87
2022/04/19 05:14:58;;;;;;;5.60;3.35;;;7.20;99.90;;;;;;5085970;28;20204;-87
2022/04/19 05:17:44;;;;;;;5.67;3.50;;;7.20;99.90;;;;;;5084680;28;20229;-87
2022/04/19 05:20:16;;;;;;;5.53;3.50;;;7.20;99.90;;;;;;5086547;28;20446;-87
2022/04/19 05:22:50;;;;;;;6.03;3.65;;;7.20;99.90;;;;;;5095565;28;20217;-86
2022/04/19 05:25:23;;;;;;;6.18;3.50;;;7.10;99.90;;;;;;5091843;28;20212;-87
2022/04/19 05:28:01;;;;;;;6.73;3.40;;;7.10;99.90;;;;;;5084203;28;20205;-86
2022/04/19 05:30:30;;;;;;;7.60;3.78;;;7.10;99.90;;;;;;5082737;28;20449;-87
2022/04/19 05:39:20;;;;;;;5.70;3.30;;;7.40;99.90;;;;;;1253378;26;20475;-87
2022/04/19 05:45:55;;;;;;;6.80;3.67;;;7.30;99.90;;;;;;5006791;28;20207;-87
2022/04/19 05:51:42;;;;;;;10.70;3.37;;;7.40;99.90;;;;;;5068381;28;20482;-86
2022/04/19 05:55:05;;;;;;;6.90;4.00;;;7.60;99.90;;;;;;5086117;28;20443;-86
2022/04/19 06:05:24;;;;;;;9.53;4.40;;;8.10;99.90;;;;;;5070795;28;20495;-88
2022/04/19 06:12:04;;;;;;;8.33;4.73;;;8.60;99.90;;;;;;5084705;28;20478;-86
2022/04/19 06:14:41;;;;;;;8.47;4.70;;;8.80;99.90;;;;;;5080100;28;20454;-87
2022/04/19 06:20:29;;;;;;;;;;;;;;;;;;;;;
2022/04/19 06:23:13;;;;;;;11.87;5.17;;;9.30;99.90;;;;;;5087392;28;20955;-87
2022/04/19 06:29:01;;;;;;;9.20;4.87;;;9.70;99.90;;;;;;5079733;28;20451;-87
2022/04/19 06:31:59;;;;;;;8.40;4.77;;;9.80;99.90;;;;;;5083625;28;20487;-87
2022/04/19 06:34:35;;;;;;;9.60;5.50;;;10.00;99.90;;;;;;5082836;28;20466;-87
2022/04/19 06:37:27;;;;;;;7.40;4.60;;;10.10;99.90;;;;;;5095381;28;20513;-84
2022/04/19 06:40:25;;;;;;;11.73;4.83;;;10.40;99.90;;;;;;5096187;28;20517;-86
2022/04/19 06:43:04;;;;;;;17.10;4.57;;;10.50;99.50;;;;;;5091723;28;20432;-87
2022/04/19 06:45:54;;;;;;;20.00;5.07;;;10.70;99.00;;;;;;5095804;28;20440;-85
2022/04/19 06:48:35;;;;;;;7.13;4.50;;;10.70;98.30;;;;;;5094173;28;20443;-86
2022/04/19 06:51:05;;;;;;;6.43;4.00;;;10.90;98.30;;;;;;5093149;28;20507;-88
2022/04/19 06:56:50;;;;;;;8.23;4.20;;;11.10;97.10;;;;;;5083989;28;20468;-88
2022/04/19 06:59:42;;;;;;;10.40;5.37;;;11.30;96.60;;;;;;5085955;28;20526;-88
2022/04/19 07:02:16;;;;;;;7.13;4.53;;;11.40;96.40;;;;;;5084954;28;20465;-89
2022/04/19 07:05:03;;;;;;;7.63;4.50;;;11.70;95.80;;;;;;5083511;28;20483;-88
2022/04/19 07:18:11;;;;;;;11.80;5.93;;;11.90;95.90;;;;;;5083201;28;20467;-86
2022/04/19 07:27:51;;;;;;;10.90;5.83;;;12.00;95.60;;;;;;5084592;28;20498;-86
2022/04/19 07:31:08;;;;;;;;;;;;;;;;;;;;;
2022/04/19 07:41:15;;;;;;;;;;;;;;;;;;;;;
2022/04/19 08:36:08;;;;;;;;;;;;;;;;;;;;;
2022/04/19 08:43:22;;;;;;;9.87;5.20;;;14.00;79.60;;;;;;4995581;28;20450;-86
2022/04/19 08:50:09;;;;;;;;;;;;;;;;;;;;;
2022/04/19 13:58:08;;;;;;;6.83;4.43;;;17.60;52.60;;;;;;4796491;29;20476;-87
2022/04/19 14:38:57;;;;;;;6.73;5.07;;;18.80;54.10;;;;;;4976385;28;20485;-88
2022/04/19 16:01:20;;;;;;;5.87;4.03;;;20.30;49.10;;;;;;5186127;22;20461;-87
2022/04/19 16:04:09;;;;;;;6.50;4.27;;;20.00;49.10;;;;;;5089147;28;20444;-87
2022/04/19 16:09:57;;;;;;;6.10;3.97;;;19.10;50.90;;;;;;5035821;28;20526;-88
2022/04/19 16:12:45;;;;;;;7.07;3.90;;;18.90;51.50;;;;;;5070669;28;20817;-87
2022/04/19 16:24:17;;;;;;;5.57;3.60;;;18.60;52.20;;;;;;5070414;28;20500;-86
2022/04/19 16:26:55;;;;;;;6.93;3.30;;;18.50;51.90;;;;;;5069622;28;20496;-88
2022/04/19 16:29:26;;;;;;;7.70;4.00;;;18.50;51.40;;;;;;5069209;28;20507;-86
2022/04/19 16:31:56;;;;;;;7.87;4.20;;;18.40;51.50;;;;;;5068306;28;20415;-87
2022/04/19 16:34:23;;;;;;;9.73;3.87;;;18.50;51.50;;;;;;5068329;28;20476;-87
2022/04/19 16:37:02;;;;;;;5.47;2.97;;;18.30;51.40;;;;;;5067739;28;20445;-85
2022/04/19 16:39:33;;;;;;;5.23;3.40;;;18.30;51.70;;;;;;5067902;28;20468;-87
2022/04/19 16:42:10;;;;;;;7.57;3.80;;;18.30;51.50;;;;;;5067403;28;20432;-88
2022/04/19 16:47:53;;;;;;;8.47;3.77;;;18.20;51.80;;;;;;5065928;28;20480;-87
2022/04/19 16:50:29;;;;;;;5.90;2.80;;;18.30;52.00;;;;;;5065270;28;20472;-86
2022/04/19 16:53:15;;;;;;;5.93;3.43;;;18.30;51.60;;;;;;5065284;28;21027;-87
2022/04/19 16:55:44;;;;;;;5.57;3.37;;;18.20;52.00;;;;;;5056613;28;20542;-86
2022/04/19 16:58:27;;;;;;;6.07;3.37;;;18.10;52.00;;;;;;5064393;28;20935;-86
2022/04/19 17:01:02;;;;;;;4.30;2.70;;;18.10;51.80;;;;;;5065718;28;20451;-87
2022/04/19 17:06:25;;;;;;;5.70;3.70;;;18.00;51.70;;;;;;5065368;28;21052;-88
2022/04/19 17:08:53;;;;;;;10.70;6.80;;;17.90;51.70;;;;;;5070374;28;20465;-88
2022/04/19 17:11:30;;;;;;;8.07;4.20;;;17.90;51.80;;;;;;5072221;28;20495;-87
2022/04/19 17:14:01;;;;;;;6.33;3.60;;;17.90;51.70;;;;;;5065519;28;20487;-88
2022/04/19 17:16:32;;;;;;;6.37;3.77;;;18.00;51.90;;;;;;5064635;28;20416;-87
2022/04/19 17:19:01;;;;;;;6.50;3.70;;;17.80;52.00;;;;;;5061903;28;20634;-87
2022/04/19 17:21:31;;;;;;;6.13;2.90;;;17.90;52.20;;;;;;5064087;28;20476;-87
2022/04/19 17:23:59;;;;;;;7.33;3.80;;;18.00;51.90;;;;;;5062902;28;20884;-87
2022/04/19 17:26:26;;;;;;;5.80;3.43;;;17.80;52.00;;;;;;5063072;28;20447;-86
2022/04/19 17:28:53;;;;;;;5.63;2.80;;;17.80;52.50;;;;;;5064377;28;20829;-85
2022/04/19 17:31:25;;;;;;;5.67;3.30;;;17.70;52.10;;;;;;5062937;28;20476;-86
2022/04/19 17:33:52;;;;;;;7.47;3.03;;;17.70;52.30;;;;;;5065084;28;20441;-87
2022/04/19 17:36:22;;;;;;;4.37;2.70;;;17.70;52.40;;;;;;5070405;28;20468;-87
2022/04/19 17:39:06;;;;;;;5.03;2.90;;;17.70;52.10;;;;;;5075164;28;20469;-86
2022/04/19 17:41:54;;;;;;;5.50;3.43;;;17.70;52.30;;;;;;5074830;28;20508;-85
2022/04/19 17:47:52;;;;;;;4.60;3.10;;;17.60;52.30;;;;;;5046200;28;20433;-86
2022/04/19 17:58:42;;;;;;;6.77;4.07;;;17.50;52.50;;;;;;5077114;28;20456;-85
2022/04/19 18:01:14;;;;;;;7.67;4.77;;;17.30;52.70;;;;;;5075661;28;20445;-88
2022/04/19 18:03:42;;;;;;;7.03;4.60;;;17.40;52.90;;;;;;5076693;28;20432;-87
2022/04/19 18:06:18;;;;;;;11.40;5.57;;;17.30;53.30;;;;;;5075563;28;20485;-87
2022/04/19 18:08:47;;;;;;;9.17;4.87;;;17.30;53.30;;;;;;5068711;28;20477;-86
2022/04/19 18:11:15;;;;;;;12.47;4.33;;;17.30;53.70;;;;;;5062382;28;20416;-87
2022/04/19 18:13:46;;;;;;;6.90;4.03;;;17.20;53.90;;;;;;5062760;28;20424;-85
2022/04/19 18:16:15;;;;;;;8.60;5.20;;;17.30;53.30;;;;;;5061655;28;20439;-86
2022/04/19 18:18:46;;;;;;;11.77;7.73;;;17.30;53.30;;;;;;5061879;28;20519;-85
2022/04/19 18:21:14;;;;;;;12.53;6.90;;;17.30;53.40;;;;;;5064141;28;20415;-86
2022/04/19 18:26:35;;;;;;;9.60;5.80;;;17.10;54.00;;;;;;5071473;28;20510;-85
2022/04/19 18:29:24;;;;;;;5.17;3.00;;;17.00;54.00;;;;;;5067696;28;20545;-87
2022/04/19 18:31:53;;;;;;;6.70;3.10;;;17.00;54.20;;;;;;5065944;28;20452;-86
2022/04/19 18:34:22;;;;;;;6.50;3.13;;;17.00;54.50;;;;;;5066253;28;20453;-86
2022/04/19 18:36:49;;;;;;;5.10;3.27;;;17.00;54.80;;;;;;5065191;28;20475;-85
2022/04/19 18:39:16;;;;;;;5.93;2.90;;;17.00;55.00;;;;;;5066185;28;20472;-85
2022/04/19 18:41:45;;;;;;;4.90;3.30;;;16.90;55.50;;;;;;5066834;28;20451;-86
2022/04/19 18:44:21;;;;;;;5.93;4.17;;;16.60;55.80;;;;;;5064073;28;20448;-86
2022/04/19 18:47:05;;;;;;;4.60;2.50;;;16.50;56.20;;;;;;5063977;28;20480;-85
2022/04/19 18:49:43;;;;;;;6.30;3.97;;;16.40;56.60;;;;;;5048314;28;20564;-86
2022/04/19 18:52:14;;;;;;;7.60;3.50;;;16.30;57.00;;;;;;5064940;28;20507;-85
2022/04/19 18:54:41;;;;;;;4.17;2.47;;;16.30;57.30;;;;;;5062817;28;20497;-85
2022/04/19 18:57:23;;;;;;;5.50;2.90;;;16.10;57.80;;;;;;5062601;28;20447;-85
2022/04/19 18:59:50;;;;;;;5.30;2.97;;;16.10;58.10;;;;;;5061712;28;20456;-85
2022/04/19 19:02:17;;;;;;;4.87;2.37;;;16.00;59.20;;;;;;5072988;28;20430;-87
2022/04/19 19:04:47;;;;;;;5.50;3.10;;;15.90;59.00;;;;;;5069153;28;20440;-88
2022/04/19 19:07:14;;;;;;;4.97;2.80;;;15.90;59.50;;;;;;5062660;28;21031;-88
2022/04/19 19:09:46;;;;;;;6.30;2.70;;;15.90;59.90;;;;;;5066388;28;20449;-88
2022/04/19 19:12:13;;;;;;;5.90;2.40;;;15.90;60.10;;;;;;5062382;28;20455;-87
2022/04/19 19:14:57;;;;;;;6.30;2.70;;;15.90;60.40;;;;;;5066246;28;20423;-87
2022/04/19 19:17:37;;;;;;;7.30;2.90;;;16.00;60.50;;;;;;5063573;28;20413;-88
2022/04/19 19:20:14;;;;;;;8.13;3.10;;;16.00;60.90;;;;;;5062625;28;20460;-88
2022/04/19 19:22:41;;;;;;;4.73;3.13;;;15.80;61.20;;;;;;5063704;28;20456;-87
2022/04/19 19:25:12;;;;;;;6.70;2.90;;;15.90;61.60;;;;;;5065942;28;20431;-87
2022/04/19 19:27:38;;;;;;;4.30;2.50;;;15.80;61.90;;;;;;5076405;28;20471;-86
2022/04/19 19:30:09;;;;;;;6.20;3.20;;;15.70;62.20;;;;;;5065908;28;20447;-87
2022/04/19 19:32:36;;;;;;;4.50;2.57;;;15.70;62.40;;;;;;5065802;28;20420;-86
2022/04/19 19:35:04;;;;;;;5.43;2.03;;;15.50;62.70;;;;;;5064369;28;20488;-85
2022/04/19 19:37:40;;;;;;;5.10;2.77;;;15.50;63.10;;;;;;5063505;28;20488;-87
2022/04/19 19:43:11;;;;;;;5.50;2.80;;;15.70;63.10;;;;;;5047657;28;20418;-86
2022/04/19 19:45:41;;;;;;;8.10;3.10;;;15.60;63.30;;;;;;5063379;28;20979;-86
2022/04/19 19:48:08;;;;;;;4.63;2.37;;;15.40;63.20;;;;;;5068462;28;20445;-87
2022/04/19 19:50:55;;;;;;;3.43;2.03;;;15.40;63.50;;;;;;5073002;28;20445;-87
2022/04/19 19:53:26;;;;;;;3.90;2.23;;;15.30;63.30;;;;;;5064751;28;20460;-86
2022/04/19 19:56:03;;;;;;;6.57;2.30;;;15.20;63.50;;;;;;5065809;28;20860;-87
2022/04/19 19:58:35;;;;;;;3.90;2.53;;;15.20;63.60;;;;;;5064452;28;20455;-85
2022/04/19 20:01:17;;;;;;;6.83;2.57;;;15.20;63.10;;;;;;5063996;28;20428;-87
2022/04/19 20:03:51;;;;;;;7.23;2.33;;;15.20;63.60;;;;;;5064253;28;20535;-87
2022/04/19 20:06:18;;;;;;;4.90;2.23;;;15.20;63.10;;;;;;5069376;28;20442;-86
2022/04/19 20:08:59;;;;;;;5.10;2.63;;;15.10;63.20;;;;;;5065605;28;20499;-86
2022/04/19 20:11:30;;;;;;;4.17;2.17;;;15.10;62.20;;;;;;5064645;28;20483;-85
2022/04/19 20:14:02;;;;;;;5.77;2.70;;;15.10;62.50;;;;;;5066217;28;20905;-87
2022/04/19 20:16:37;;;;;;;4.87;2.27;;;15.00;62.60;;;;;;5068470;28;20998;-87
2022/04/19 20:21:54;;;;;;;4.00;2.33;;;14.90;59.80;;;;;;5058643;28;20457;-87
2022/04/19 20:24:44;;;;;;;3.27;1.67;;;14.80;60.20;;;;;;5073723;28;20459;-88
2022/04/19 20:27:13;;;;;;;5.00;2.30;;;14.70;59.30;;;;;;5065033;28;20510;-87
2022/04/19 20:29:53;;;;;;;6.00;2.10;;;14.60;59.20;;;;;;5064343;28;20443;-87
2022/04/19 20:32:56;;;;;;;3.90;2.10;;;14.50;59.60;;;;;;5066182;28;20415;-86
2022/04/19 20:35:34;;;;;;;4.90;2.30;;;14.50;59.40;;;;;;5075805;28;20413;-89
2022/04/19 20:38:01;;;;;;;3.33;2.00;;;14.40;58.70;;;;;;5078466;28;20443;-86
2022/04/19 20:40:33;;;;;;;6.40;3.30;;;14.20;58.30;;;;;;5075062;28;20445;-86
2022/04/19 20:43:09;;;;;;;7.40;3.00;;;14.10;58.70;;;;;;5077511;28;20493;-87
2022/04/19 20:45:36;;;;;;;8.60;3.20;;;14.00;58.80;;;;;;5075780;28;20448;-85
2022/04/19 20:50:53;;;;;;;5.50;3.03;;;14.00;59.10;;;;;;5064913;28;20448;-87
2022/04/19 20:53:23;;;;;;;7.43;3.03;;;13.90;58.60;;;;;;5062469;28;20423;-87
2022/04/19 20:55:52;;;;;;;5.20;3.10;;;14.00;58.50;;;;;;5071453;28;20392;-87
2022/04/19 20:58:23;;;;;;;5.03;2.43;;;13.60;58.40;;;;;;5062328;28;20504;-87
2022/04/19 21:00:50;;;;;;;4.97;3.40;;;13.70;58.50;;;;;;5065449;28;20648;-88
2022/04/19 21:03:18;;;;;;;4.73;3.07;;;13.50;58.40;;;;;;5064392;28;20461;-88
2022/04/19 21:05:48;;;;;;;7.10;3.47;;;13.40;58.60;;;;;;5064210;28;20470;-89
2022/04/19 21:08:15;;;;;;;4.90;3.23;;;13.60;58.60;;;;;;5064933;28;20439;-87
2022/04/19 21:10:42;;;;;;;5.63;3.00;;;13.40;58.50;;;;;;5065952;28;20431;-86
2022/04/19 21:13:10;;;;;;;8.80;4.17;;;13.30;59.00;;;;;;5064410;28;20474;-87
2022/04/19 21:15:38;;;;;;;5.70;3.30;;;13.40;59.10;;;;;;5063855;28;20407;-89
2022/04/19 21:18:05;;;;;;;4.57;3.20;;;13.30;59.00;;;;;;5063189;28;20470;-87
2022/04/19 21:20:34;;;;;;;5.20;3.30;;;13.50;59.00;;;;;;5061824;28;20511;-87
2022/04/19 21:23:00;;;;;;;6.07;3.20;;;13.30;58.70;;;;;;5061355;28;20489;-86
2022/04/19 21:25:27;;;;;;;6.03;3.50;;;13.30;59.00;;;;;;5063152;28;20442;-88
2022/04/19 21:27:54;;;;;;;8.60;2.83;;;13.40;58.60;;;;;;5064966;28;20471;-88
2022/04/19 21:30:23;;;;;;;5.90;3.27;;;13.20;58.70;;;;;;5061481;28;20468;-87
2022/04/19 21:32:52;;;;;;;5.23;3.10;;;13.20;58.80;;;;;;5065412;28;20961;-87
2022/04/19 21:35:20;;;;;;;7.97;2.97;;;13.20;57.80;;;;;;5059570;28;20415;-86
2022/04/19 21:37:47;;;;;;;7.13;2.80;;;13.00;58.10;;;;;;5060752;28;20437;-86
2022/04/19 21:40:17;;;;;;;5.50;2.80;;;13.10;58.10;;;;;;5058577;28;20802;-86
2022/04/19 21:42:44;;;;;;;5.70;2.67;;;13.00;57.50;;;;;;5076416;28;20467;-86
2022/04/19 21:45:11;;;;;;;4.40;2.60;;;12.90;57.70;;;;;;5069427;28;20507;-87
2022/04/19 21:47:39;;;;;;;4.17;2.67;;;12.90;57.50;;;;;;5060664;28;20480;-87
2022/04/19 21:50:08;;;;;;;4.33;2.50;;;13.00;57.10;;;;;;5058922;28;20451;-87
2022/04/19 21:52:36;;;;;;;7.03;2.80;;;13.00;56.40;;;;;;5060907;28;20772;-85
2022/04/19 21:55:06;;;;;;;5.10;2.60;;;12.90;56.70;;;;;;5063234;28;20510;-87
2022/04/19 21:57:33;;;;;;;4.77;3.07;;;12.90;56.80;;;;;;5075562;28;20431;-85
2022/04/19 22:00:11;;;;;;;5.90;2.50;;;12.80;56.90;;;;;;5180672;22;20575;-86
2022/04/19 22:03:15;;;;;;;3.97;2.07;;;13.00;56.30;;;;;;5100919;28;20774;-85
2022/04/19 22:12:00;;;;;;;7.17;2.67;;;12.80;56.10;;;;;;5120175;28;20438;-86
2022/04/19 22:15:01;;;;;;;5.20;2.80;;;12.80;55.90;;;;;;5122952;28;20434;-86
2022/04/19 22:20:28;;;;;;;10.10;3.10;;;12.60;56.60;;;;;;5120579;28;20482;-85
2022/04/19 22:23:07;;;;;;;5.87;2.83;;;12.70;56.60;;;;;;5123049;28;20499;-85
2022/04/19 22:26:06;;;;;;;6.40;2.50;;;12.60;56.90;;;;;;5123371;28;20434;-85
2022/04/19 22:31:52;;;;;;;5.07;2.70;;;12.50;57.40;;;;;;5112147;28;20465;-86
2022/04/19 22:34:38;;;;;;;4.70;2.30;;;12.50;57.50;;;;;;5123933;28;20946;-86
2022/04/19 22:37:21;;;;;;;7.00;2.70;;;12.40;57.70;;;;;;5124287;28;20442;-86
2022/04/19 22:42:45;;;;;;;4.53;2.40;;;12.30;57.40;;;;;;5136089;28;20435;-86
2022/04/19 22:45:34;;;;;;;;;;;;;;;;;;;;;
2022/04/19 22:51:30;;;;;;;6.07;2.47;;;12.10;57.70;;;;;;5134722;28;20484;-84
2022/04/19 22:54:17;;;;;;;4.50;2.40;;;12.10;57.70;;;;;;5128631;28;20454;-86
2022/04/19 23:00:26;;;;;;;4.43;2.70;;;12.10;57.30;;;;;;5127559;28;20466;-86
2022/04/19 23:02:58;;;;;;;8.70;2.47;;;12.10;57.80;;;;;;5125178;28;20423;-85
2022/04/19 23:05:33;;;;;;;5.77;2.90;;;11.90;57.40;;;;;;5124935;28;20458;-85
2022/04/19 23:08:56;;;;;;;4.37;2.37;;;11.90;57.80;;;;;;5120005;28;21003;-85
2022/04/19 23:11:51;;;;;;;4.13;2.17;;;11.90;57.90;;;;;;5068256;28;20415;-86
2022/04/19 23:17:20;;;;;;;6.77;2.80;;;12.00;57.80;;;;;;5066431;28;20507;-87
2022/04/19 23:20:16;;;;;;;6.20;2.23;;;12.10;57.10;;;;;;5072032;28;20447;-87
2022/04/19 23:23:11;;;;;;;6.27;3.00;;;11.80;57.40;;;;;;5069602;28;20487;-87
2022/04/19 23:32:11;;;;;;;5.43;2.47;;;11.60;58.60;;;;;;5029992;28;20421;-86
2022/04/19 23:41:12;;;;;;;7.33;3.07;;;11.50;62.60;;;;;;5117293;28;20501;-87
2022/04/19 23:47:21;;;;;;;5.50;3.37;;;11.30;64.20;;;;;;5123978;28;20817;-86
2022/04/19 23:50:12;;;;;;;5.83;3.53;;;11.20;65.60;;;;;;5129755;28;20477;-85
2022/04/19 23:52:53;;;;;;;5.53;3.13;;;11.20;66.60;;;;;;5126885;28;20471;-85
2022/04/19 23:55:28;;;;;;;6.70;3.47;;;11.10;67.60;;;;;;5132749;28;20456;-87
2022/04/19 23:58:02;;;;;;;8.10;3.87;;;11.00;68.30;;;;;;5135409;28;20425;-86
